Time;durP1;ratioP1;P1;durP2;ratioP2;P2;SDS_P1;SDS_P2;PMS_P1;PMS_P2;Temp;Humidity;BMP_temperature;BMP_pressure;BME280_temperature;BME280_humidity;BME280_pressure;Samples;Min_cycle;Max_cycle;Signal;HPM_P1;HPM_P2
2023/07/07 00:02:12;;;;;;;5.80;4.13;;;;;;;;;;5095736;27;20139;-66
2023/07/07 00:04:39;;;;;;;7.63;4.35;;;;;;;;;;5096216;27;20057;-65
2023/07/07 00:07:05;;;;;;;5.90;4.07;;;;;;;;;;5085893;27;20055;-65
2023/07/07 00:09:32;;;;;;;5.55;4.38;;;;;;;;;;5087026;27;20052;-64
2023/07/07 00:12:00;;;;;;;8.60;4.70;;;;;;;;;;5084198;27;20083;-64
2023/07/07 00:14:26;;;;;;;10.77;4.47;;;;;;;;;;5082189;28;20487;-65
2023/07/07 00:16:52;;;;;;;7.22;4.53;;;;;;;;;;5097812;27;20110;-65
2023/07/07 00:19:19;;;;;;;5.07;4.22;;;;;;;;;;5085186;27;20596;-63
2023/07/07 00:21:46;;;;;;;5.75;4.60;;;;;;;;;;5087152;27;20525;-66
2023/07/07 00:24:12;;;;;;;5.80;4.25;;;;;;;;;;5081449;27;20087;-65
2023/07/07 00:26:39;;;;;;;8.07;4.53;;;;;;;;;;5096791;27;20132;-63
2023/07/07 00:29:06;;;;;;;5.78;4.45;;;;;;;;;;5095301;27;20051;-63
2023/07/07 00:31:33;;;;;;;8.30;4.15;;;;;;;;;;5104888;27;20653;-65
2023/07/07 00:33:59;;;;;;;5.10;4.50;;;;;;;;;;5100859;27;20882;-65
2023/07/07 00:36:26;;;;;;;10.55;4.22;;;;;;;;;;5095613;27;20098;-63
2023/07/07 00:38:52;;;;;;;7.97;4.93;;;;;;;;;;5090190;27;20048;-66
2023/07/07 00:41:19;;;;;;;4.65;4.05;;;;;;;;;;5094614;27;20052;-66
2023/07/07 00:44:05;;;;;;;6.10;4.30;;;;;;;;;;5090236;27;20105;-64
2023/07/07 00:46:32;;;;;;;8.05;4.72;;;;;;;;;;5106338;27;20078;-62
2023/07/07 00:49:01;;;;;;;7.30;5.00;;;;;;;;;;5088489;27;20179;-66
2023/07/07 00:51:32;;;;;;;5.93;5.22;;;;;;;;;;5089519;27;20559;-64
2023/07/07 00:53:59;;;;;;;9.13;4.82;;;;;;;;;;5092747;27;20508;-66
2023/07/07 00:56:30;;;;;;;7.35;4.82;;;;;;;;;;5108703;27;20207;-65
2023/07/07 00:59:01;;;;;;;8.10;4.68;;;;;;;;;;5084726;28;20083;-65
2023/07/07 01:01:27;;;;;;;7.13;4.93;;;;;;;;;;5091368;27;20517;-64
2023/07/07 01:03:56;;;;;;;8.70;5.35;;;;;;;;;;5098608;27;20538;-65
2023/07/07 01:06:25;;;;;;;9.05;5.57;;;;;;;;;;5094734;27;20531;-65
2023/07/07 01:08:58;;;;;;;9.38;5.72;;;;;;;;;;5090609;27;20424;-64
2023/07/07 01:11:25;;;;;;;5.75;5.15;;;;;;;;;;5097627;28;20060;-64
2023/07/07 01:13:51;;;;;;;11.63;5.95;;;;;;;;;;5093821;27;20048;-65
2023/07/07 01:16:25;;;;;;;6.72;5.82;;;;;;;;;;5090821;27;20057;-64
2023/07/07 01:19:05;;;;;;;6.57;5.65;;;;;;;;;;5090538;27;20501;-65
2023/07/07 01:21:31;;;;;;;7.85;6.10;;;;;;;;;;5102833;27;20051;-65
2023/07/07 01:24:09;;;;;;;11.95;6.30;;;;;;;;;;5093532;28;20056;-64
2023/07/07 01:26:58;;;;;;;8.88;5.93;;;;;;;;;;5102469;27;20052;-65
2023/07/07 01:29:44;;;;;;;8.85;6.03;;;;;;;;;;5098963;27;20060;-64
2023/07/07 01:32:15;;;;;;;8.80;5.75;;;;;;;;;;5089966;27;20529;-64
2023/07/07 01:34:42;;;;;;;6.97;5.57;;;;;;;;;;5107811;27;20052;-66
2023/07/07 01:37:08;;;;;;;11.82;6.00;;;;;;;;;;5115365;27;20056;-61
2023/07/07 01:39:35;;;;;;;9.32;5.88;;;;;;;;;;5095851;27;20139;-64
2023/07/07 01:42:11;;;;;;;8.43;6.15;;;;;;;;;;5091790;27;20896;-63
2023/07/07 01:44:44;;;;;;;9.52;6.43;;;;;;;;;;5090349;27;20051;-63
2023/07/07 01:47:18;;;;;;;6.65;5.90;;;;;;;;;;5095125;27;20625;-66
2023/07/07 01:49:58;;;;;;;8.27;6.75;;;;;;;;;;5122016;27;20130;-64
2023/07/07 01:52:45;;;;;;;7.20;6.30;;;;;;;;;;5088298;27;20230;-64
2023/07/07 01:55:14;;;;;;;8.52;5.82;;;;;;;;;;5095246;27;20060;-65
2023/07/07 01:57:43;;;;;;;6.30;5.38;;;;;;;;;;5100549;27;20087;-64
2023/07/07 02:00:10;;;;;;;7.72;6.25;;;;;;;;;;5087101;27;20143;-65
2023/07/07 02:02:36;;;;;;;9.15;6.85;;;;;;;;;;5104543;27;20063;-65
2023/07/07 02:05:03;;;;;;;7.97;6.15;;;;;;;;;;5105370;27;20395;-65
2023/07/07 02:07:30;;;;;;;8.90;6.60;;;;;;;;;;5098927;27;20053;-66
2023/07/07 02:09:56;;;;;;;7.22;6.53;;;;;;;;;;5106664;27;20097;-64
2023/07/07 02:12:23;;;;;;;8.93;6.93;;;;;;;;;;5090479;27;20056;-64
2023/07/07 02:14:49;;;;;;;7.50;6.40;;;;;;;;;;5095955;27;20135;-65
2023/07/07 02:17:16;;;;;;;7.93;6.57;;;;;;;;;;5097778;27;20052;-65
2023/07/07 02:19:43;;;;;;;9.20;6.55;;;;;;;;;;5093610;27;20850;-65
2023/07/07 02:22:09;;;;;;;10.52;7.60;;;;;;;;;;5093786;27;20767;-64
2023/07/07 02:24:36;;;;;;;10.10;7.45;;;;;;;;;;5095066;28;20055;-65
2023/07/07 02:27:02;;;;;;;8.80;6.60;;;;;;;;;;5097770;27;20532;-64
2023/07/07 02:29:29;;;;;;;8.32;7.35;;;;;;;;;;5090797;27;20051;-65
2023/07/07 02:31:55;;;;;;;7.47;6.50;;;;;;;;;;5098016;27;20079;-65
2023/07/07 02:34:22;;;;;;;8.30;7.28;;;;;;;;;;5093813;27;20056;-65
2023/07/07 02:36:51;;;;;;;8.52;7.35;;;;;;;;;;5102709;27;20628;-64
2023/07/07 02:39:17;;;;;;;8.90;7.82;;;;;;;;;;5101651;27;20059;-62
2023/07/07 02:41:44;;;;;;;12.52;7.65;;;;;;;;;;5097742;27;20052;-66
2023/07/07 02:44:10;;;;;;;9.85;7.57;;;;;;;;;;5088732;27;20704;-65
2023/07/07 02:46:37;;;;;;;8.23;7.30;;;;;;;;;;5103243;27;20512;-64
2023/07/07 02:49:03;;;;;;;8.68;7.57;;;;;;;;;;5109885;27;20053;-66
2023/07/07 02:51:30;;;;;;;12.55;8.45;;;;;;;;;;5101915;27;20139;-62
2023/07/07 02:53:56;;;;;;;13.35;8.20;;;;;;;;;;5102363;27;20515;-66
2023/07/07 02:56:23;;;;;;;12.55;8.15;;;;;;;;;;5098311;27;20428;-64
2023/07/07 02:58:53;;;;;;;9.93;8.40;;;;;;;;;;5103128;27;20159;-64
2023/07/07 03:01:20;;;;;;;9.40;8.18;;;;;;;;;;5095905;27;20191;-63
2023/07/07 03:03:50;;;;;;;12.45;9.02;;;;;;;;;;5100859;27;20064;-62
2023/07/07 03:06:18;;;;;;;12.98;8.38;;;;;;;;;;5089305;27;20091;-64
2023/07/07 03:08:45;;;;;;;11.02;8.23;;;;;;;;;;5121021;27;20047;-64
2023/07/07 03:11:13;;;;;;;12.43;9.32;;;;;;;;;;5102085;27;20333;-64
2023/07/07 03:13:40;;;;;;;10.57;8.50;;;;;;;;;;5084762;27;20048;-62
2023/07/07 03:16:08;;;;;;;10.55;8.48;;;;;;;;;;5094080;27;20104;-64
2023/07/07 03:18:34;;;;;;;9.70;8.27;;;;;;;;;;5098871;27;20052;-64
2023/07/07 03:21:01;;;;;;;11.43;8.20;;;;;;;;;;5095715;27;20515;-64
2023/07/07 03:23:28;;;;;;;10.90;8.13;;;;;;;;;;5093339;27;20082;-64
2023/07/07 03:25:54;;;;;;;11.23;8.23;;;;;;;;;;5094369;27;20048;-66
2023/07/07 03:28:20;;;;;;;15.77;7.28;;;;;;;;;;5102916;28;20044;-65
2023/07/07 03:30:48;;;;;;;12.65;8.20;;;;;;;;;;5100029;27;20101;-63
2023/07/07 03:33:15;;;;;;;9.50;8.13;;;;;;;;;;5108427;27;20569;-60
2023/07/07 03:35:41;;;;;;;10.55;8.35;;;;;;;;;;5092010;27;20165;-65
2023/07/07 03:38:08;;;;;;;9.80;7.38;;;;;;;;;;5094064;27;20483;-64
2023/07/07 03:40:34;;;;;;;10.50;7.65;;;;;;;;;;5085785;27;20044;-64
2023/07/07 03:43:01;;;;;;;10.52;7.50;;;;;;;;;;5110209;27;20517;-64
2023/07/07 03:45:27;;;;;;;12.23;8.20;;;;;;;;;;5091861;27;20135;-65
2023/07/07 03:47:54;;;;;;;13.23;7.97;;;;;;;;;;5101987;27;20129;-64
2023/07/07 03:50:20;;;;;;;8.75;7.85;;;;;;;;;;5118815;27;20048;-65
2023/07/07 03:52:47;;;;;;;13.63;9.75;;;;;;;;;;5085665;27;20361;-65
2023/07/07 03:55:13;;;;;;;9.27;8.25;;;;;;;;;;5091467;27;20511;-65
2023/07/07 03:57:40;;;;;;;10.02;8.68;;;;;;;;;;5100112;27;20148;-64
2023/07/07 04:00:07;;;;;;;11.68;8.27;;;;;;;;;;5103325;27;20067;-64
2023/07/07 04:02:35;;;;;;;9.07;8.15;;;;;;;;;;5099777;27;21615;-65
2023/07/07 04:05:02;;;;;;;10.30;8.07;;;;;;;;;;5090012;27;20444;-64
2023/07/07 04:07:29;;;;;;;11.80;8.68;;;;;;;;;;5101417;27;20052;-64
2023/07/07 04:09:55;;;;;;;11.68;9.07;;;;;;;;;;5102452;27;20048;-65
2023/07/07 04:12:21;;;;;;;11.43;8.95;;;;;;;;;;5095682;27;20141;-65
2023/07/07 04:14:48;;;;;;;15.65;8.23;;;;;;;;;;5095764;27;20049;-64
2023/07/07 04:17:14;;;;;;;10.18;7.80;;;;;;;;;;5095131;27;20059;-65
2023/07/07 04:19:41;;;;;;;9.18;7.80;;;;;;;;;;5088056;27;20579;-66
2023/07/07 04:22:07;;;;;;;10.80;8.85;;;;;;;;;;5088740;28;20052;-65
2023/07/07 04:24:34;;;;;;;11.07;8.57;;;;;;;;;;5084827;27;20063;-65
2023/07/07 04:27:00;;;;;;;12.05;8.43;;;;;;;;;;5093855;27;20508;-65
2023/07/07 04:29:27;;;;;;;9.65;8.68;;;;;;;;;;5102978;27;20056;-65
2023/07/07 04:31:53;;;;;;;10.50;8.30;;;;;;;;;;5100950;27;20051;-64
2023/07/07 04:34:20;;;;;;;12.60;9.73;;;;;;;;;;5098743;27;20049;-64
2023/07/07 04:36:46;;;;;;;14.95;8.73;;;;;;;;;;5101324;27;20525;-63
2023/07/07 04:39:13;;;;;;;10.98;8.77;;;;;;;;;;5101465;27;20139;-65
2023/07/07 04:41:39;;;;;;;10.65;8.55;;;;;;;;;;5112910;27;20056;-65
2023/07/07 04:44:06;;;;;;;12.07;8.35;;;;;;;;;;5091078;27;20056;-63
2023/07/07 04:46:34;;;;;;;10.30;8.85;;;;;;;;;;5095942;27;20053;-64
2023/07/07 04:49:06;;;;;;;13.48;8.52;;;;;;;;;;5099527;27;20056;-64
2023/07/07 04:51:38;;;;;;;10.40;8.02;;;;;;;;;;5096717;27;20052;-64
2023/07/07 04:54:05;;;;;;;14.38;9.38;;;;;;;;;;5091416;27;20574;-64
2023/07/07 04:56:34;;;;;;;12.38;8.43;;;;;;;;;;5097941;27;20058;-65
2023/07/07 04:59:02;;;;;;;8.27;7.47;;;;;;;;;;5100576;27;20105;-64
2023/07/07 05:01:29;;;;;;;11.57;7.65;;;;;;;;;;5092524;27;20106;-65
2023/07/07 05:03:57;;;;;;;8.90;7.95;;;;;;;;;;5095287;27;20494;-62
2023/07/07 05:06:25;;;;;;;10.07;7.60;;;;;;;;;;5089769;27;20052;-64
2023/07/07 05:08:52;;;;;;;8.90;7.57;;;;;;;;;;5113992;27;20089;-62
2023/07/07 05:11:20;;;;;;;8.88;7.22;;;;;;;;;;5100756;27;20084;-61
2023/07/07 05:13:46;;;;;;;11.10;7.30;;;;;;;;;;5088183;27;20056;-65
2023/07/07 05:16:14;;;;;;;9.13;7.35;;;;;;;;;;5098938;27;20140;-65
2023/07/07 05:18:40;;;;;;;9.65;8.02;;;;;;;;;;5094390;27;20056;-65
2023/07/07 05:21:08;;;;;;;10.07;7.63;;;;;;;;;;5091456;27;20510;-65
2023/07/07 05:23:35;;;;;;;9.88;8.20;;;;;;;;;;5100266;27;20062;-64
2023/07/07 05:26:02;;;;;;;8.18;6.15;;;;;;;;;;5088931;27;20143;-61
2023/07/07 05:28:29;;;;;;;10.07;6.65;;;;;;;;;;5088689;27;20532;-64
2023/07/07 05:30:55;;;;;;;10.80;7.10;;;;;;;;;;5099061;27;20842;-63
2023/07/07 05:33:22;;;;;;;8.88;6.35;;;;;;;;;;5106230;27;20557;-39
2023/07/07 05:35:50;;;;;;;12.80;7.25;;;;;;;;;;5115144;27;20060;-39
2023/07/07 05:38:17;;;;;;;8.45;6.10;;;;;;;;;;5097531;27;20191;-64
2023/07/07 05:40:46;;;;;;;8.98;6.63;;;;;;;;;;5101303;27;20048;-62
2023/07/07 05:43:13;;;;;;;10.30;6.18;;;;;;;;;;5093632;27;20060;-65
2023/07/07 05:45:40;;;;;;;7.13;5.63;;;;;;;;;;5094275;27;20620;-64
2023/07/07 05:48:06;;;;;;;8.90;6.55;;;;;;;;;;5115578;27;20051;-64
2023/07/07 05:50:33;;;;;;;8.30;6.25;;;;;;;;;;5116064;27;20143;-65
2023/07/07 05:53:01;;;;;;;9.40;6.22;;;;;;;;;;5098204;27;20055;-65
2023/07/07 05:55:29;;;;;;;9.52;6.72;;;;;;;;;;5093585;27;20504;-65
2023/07/07 05:57:55;;;;;;;9.43;6.10;;;;;;;;;;5098520;27;20048;-63
2023/07/07 06:00:22;;;;;;;8.50;5.70;;;;;;;;;;5094860;27;20485;-65
2023/07/07 06:02:49;;;;;;;11.23;6.18;;;;;;;;;;5086941;27;20088;-66
2023/07/07 06:05:15;;;;;;;10.57;5.78;;;;;;;;;;5093205;27;20856;-65
2023/07/07 06:07:42;;;;;;;8.38;5.50;;;;;;;;;;5112468;27;20479;-68
2023/07/07 06:10:12;;;;;;;12.85;5.47;;;;;;;;;;5116925;27;20058;-60
2023/07/07 06:12:39;;;;;;;6.75;5.25;;;;;;;;;;5089518;27;20139;-62
2023/07/07 06:15:05;;;;;;;7.13;5.47;;;;;;;;;;5095529;27;20585;-62
2023/07/07 06:17:32;;;;;;;8.10;5.45;;;;;;;;;;5088795;27;20056;-62
2023/07/07 06:19:59;;;;;;;7.32;5.38;;;;;;;;;;5096763;27;20056;-64
2023/07/07 06:22:25;;;;;;;13.65;6.47;;;;;;;;;;5088876;27;20082;-64
2023/07/07 06:24:52;;;;;;;12.32;5.38;;;;;;;;;;5087687;27;20066;-65
2023/07/07 06:27:19;;;;;;;6.18;4.78;;;;;;;;;;5103265;27;20044;-63
2023/07/07 06:29:45;;;;;;;8.50;5.45;;;;;;;;;;5084048;27;20055;-62
2023/07/07 06:32:12;;;;;;;9.45;4.80;;;;;;;;;;5097486;27;20147;-65
2023/07/07 06:34:38;;;;;;;6.90;4.82;;;;;;;;;;5090412;27;20055;-60
2023/07/07 06:37:05;;;;;;;9.13;5.03;;;;;;;;;;5096899;27;20594;-66
2023/07/07 06:39:32;;;;;;;9.85;4.40;;;;;;;;;;5085913;27;20503;-64
2023/07/07 06:41:59;;;;;;;8.38;4.10;;;;;;;;;;5084661;28;20060;-65
2023/07/07 06:44:26;;;;;;;5.32;3.80;;;;;;;;;;5091011;27;20053;-65
2023/07/07 06:46:52;;;;;;;6.65;4.10;;;;;;;;;;5098514;27;20135;-66
2023/07/07 06:49:19;;;;;;;5.97;3.83;;;;;;;;;;5100370;27;20142;-63
2023/07/07 06:51:45;;;;;;;8.05;3.67;;;;;;;;;;5089382;27;20105;-65
2023/07/07 06:54:12;;;;;;;6.25;3.70;;;;;;;;;;5104347;27;20040;-65
2023/07/07 06:56:38;;;;;;;5.68;3.13;;;;;;;;;;5093527;27;20553;-62
2023/07/07 06:59:05;;;;;;;10.85;3.47;;;;;;;;;;5095376;27;20048;-64
2023/07/07 07:01:31;;;;;;;5.15;3.05;;;;;;;;;;5089350;27;20059;-64
2023/07/07 07:04:00;;;;;;;3.63;2.78;;;;;;;;;;5083300;28;20316;-73
2023/07/07 07:06:27;;;;;;;5.85;3.40;;;;;;;;;;5105093;27;20052;-64
2023/07/07 07:08:53;;;;;;;4.20;2.40;;;;;;;;;;5087103;27;20056;-63
2023/07/07 07:11:20;;;;;;;5.07;3.33;;;;;;;;;;5085413;27;20640;-65
2023/07/07 07:13:47;;;;;;;5.40;3.10;;;;;;;;;;5086914;28;20045;-68
2023/07/07 07:16:13;;;;;;;4.55;2.88;;;;;;;;;;5100502;27;20048;-62
2023/07/07 07:18:40;;;;;;;3.80;2.60;;;;;;;;;;5108924;27;20545;-65
2023/07/07 07:21:06;;;;;;;4.05;2.80;;;;;;;;;;5100372;27;20094;-65
2023/07/07 07:23:33;;;;;;;4.55;2.78;;;;;;;;;;5100225;28;20056;-63
2023/07/07 07:26:01;;;;;;;5.22;3.00;;;;;;;;;;5098557;27;20540;-64
2023/07/07 07:28:28;;;;;;;8.02;2.80;;;;;;;;;;5095800;27;20083;-62
2023/07/07 07:30:55;;;;;;;3.55;2.40;;;;;;;;;;5090081;27;20052;-67
2023/07/07 07:33:22;;;;;;;5.32;2.53;;;;;;;;;;5103227;27;20550;-66
2023/07/07 07:35:49;;;;;;;4.38;2.45;;;;;;;;;;5094411;27;20778;-66
2023/07/07 07:38:16;;;;;;;4.43;2.28;;;;;;;;;;5092789;27;20052;-66
2023/07/07 07:40:43;;;;;;;4.38;2.80;;;;;;;;;;5108444;27;20051;-65
2023/07/07 07:43:09;;;;;;;4.22;2.45;;;;;;;;;;5097983;27;20542;-64
2023/07/07 07:45:36;;;;;;;5.03;2.15;;;;;;;;;;5099061;27;20512;-65
2023/07/07 07:48:04;;;;;;;3.38;2.25;;;;;;;;;;5113511;27;20051;-65
2023/07/07 07:50:31;;;;;;;3.08;2.20;;;;;;;;;;5109284;27;20165;-65
2023/07/07 07:52:57;;;;;;;5.95;2.33;;;;;;;;;;5103159;27;20048;-65
2023/07/07 07:55:24;;;;;;;5.88;2.20;;;;;;;;;;5103515;27;20496;-64
2023/07/07 07:57:50;;;;;;;2.80;1.95;;;;;;;;;;5101104;27;20454;-65
2023/07/07 08:00:18;;;;;;;5.68;2.40;;;;;;;;;;5085339;27;20106;-66
2023/07/07 08:02:44;;;;;;;6.18;2.25;;;;;;;;;;5090710;27;20583;-66
2023/07/07 08:05:11;;;;;;;5.97;2.42;;;;;;;;;;5096998;27;20054;-63
2023/07/07 08:07:38;;;;;;;5.13;2.60;;;;;;;;;;5113278;27;20087;-64
2023/07/07 08:10:05;;;;;;;3.72;2.35;;;;;;;;;;5117217;27;20071;-62
2023/07/07 08:12:32;;;;;;;4.18;2.00;;;;;;;;;;5122788;27;20113;-64
2023/07/07 08:14:58;;;;;;;2.78;1.92;;;;;;;;;;5099904;27;20440;-67
2023/07/07 08:17:25;;;;;;;4.55;2.20;;;;;;;;;;5087329;27;20056;-65
2023/07/07 08:19:54;;;;;;;6.68;2.38;;;;;;;;;;5110742;27;20098;-66
2023/07/07 08:22:23;;;;;;;4.82;2.20;;;;;;;;;;5104550;27;20048;-66
2023/07/07 08:24:51;;;;;;;3.28;1.92;;;;;;;;;;5102136;27;20083;-64
2023/07/07 08:27:19;;;;;;;3.25;1.90;;;;;;;;;;5103294;27;20233;-65
2023/07/07 08:29:48;;;;;;;6.63;2.00;;;;;;;;;;5123083;27;20065;-64
2023/07/07 08:32:21;;;;;;;3.25;2.17;;;;;;;;;;5122794;27;20055;-65
2023/07/07 08:34:52;;;;;;;3.25;2.42;;;;;;;;;;5106176;27;20052;-65
2023/07/07 08:37:21;;;;;;;3.50;1.95;;;;;;;;;;5107593;27;20075;-61
2023/07/07 08:39:47;;;;;;;3.30;1.95;;;;;;;;;;5123366;27;20121;-65
2023/07/07 08:42:20;;;;;;;4.22;2.08;;;;;;;;;;5102563;27;20151;-63
2023/07/07 08:44:47;;;;;;;3.05;1.92;;;;;;;;;;5093501;27;20080;-63
2023/07/07 08:47:22;;;;;;;4.00;2.03;;;;;;;;;;5090331;27;20546;-63
2023/07/07 08:49:52;;;;;;;5.32;1.92;;;;;;;;;;5088712;27;20056;-66
2023/07/07 08:52:36;;;;;;;2.72;1.67;;;;;;;;;;5102148;28;20060;-66
2023/07/07 08:55:29;;;;;;;4.40;1.58;;;;;;;;;;5081877;28;20750;-66
2023/07/07 08:58:02;;;;;;;4.85;2.17;;;;;;;;;;5098014;27;20060;-66
2023/07/07 09:00:45;;;;;;;4.73;2.50;;;;;;;;;;5090097;27;20801;-67
2023/07/07 09:03:31;;;;;;;2.55;1.90;;;;;;;;;;5093846;27;20669;-65
2023/07/07 09:06:10;;;;;;;4.95;1.77;;;;;;;;;;5111664;27;20055;-66
2023/07/07 09:08:36;;;;;;;4.00;1.88;;;;;;;;;;5125559;27;20079;-64
2023/07/07 09:11:31;;;;;;;6.35;1.83;;;;;;;;;;5126551;27;20460;-62
2023/07/07 09:13:58;;;;;;;3.15;1.55;;;;;;;;;;5105813;27;20052;-65
2023/07/07 09:16:29;;;;;;;5.65;1.67;;;;;;;;;;5095724;27;20137;-64
2023/07/07 09:19:16;;;;;;;2.72;1.83;;;;;;;;;;5095632;27;20054;-63
2023/07/07 09:21:48;;;;;;;3.65;1.60;;;;;;;;;;5103806;27;20052;-65
2023/07/07 09:24:19;;;;;;;2.00;1.30;;;;;;;;;;5103783;28;20051;-65
2023/07/07 09:26:47;;;;;;;2.53;1.73;;;;;;;;;;5096669;27;20594;-65
2023/07/07 09:29:23;;;;;;;2.80;1.88;;;;;;;;;;5103839;27;20429;-66
2023/07/07 09:31:50;;;;;;;3.60;1.60;;;;;;;;;;5087886;27;20198;-39
2023/07/07 09:34:16;;;;;;;4.22;1.83;;;;;;;;;;5088110;27;20052;-60
2023/07/07 09:36:43;;;;;;;3.20;1.30;;;;;;;;;;5105557;28;20444;-65
2023/07/07 09:39:28;;;;;;;1.95;1.50;;;;;;;;;;5122890;27;20152;-64
2023/07/07 09:41:54;;;;;;;2.65;1.45;;;;;;;;;;5110549;27;20510;-65
2023/07/07 09:44:31;;;;;;;3.65;1.73;;;;;;;;;;5099239;27;20095;-64
2023/07/07 09:46:58;;;;;;;3.47;1.80;;;;;;;;;;5088158;27;20044;-64
2023/07/07 09:49:27;;;;;;;2.70;1.85;;;;;;;;;;5105476;27;20048;-62
2023/07/07 09:52:00;;;;;;;6.18;1.67;;;;;;;;;;5103359;27;20117;-63
2023/07/07 09:54:27;;;;;;;4.03;1.70;;;;;;;;;;5104753;27;20565;-62
2023/07/07 09:57:13;;;;;;;2.78;1.52;;;;;;;;;;5109604;27;20135;-62
2023/07/07 09:59:41;;;;;;;2.45;1.83;;;;;;;;;;5090661;27;20135;-61
2023/07/07 10:02:19;;;;;;;6.40;2.08;;;;;;;;;;5105576;27;20114;-66
2023/07/07 10:04:47;;;;;;;1.75;1.63;;;;;;;;;;5104453;27;20060;-58
2023/07/07 10:07:16;;;;;;;3.50;1.85;;;;;;;;;;5098396;27;20118;-60
2023/07/07 10:09:43;;;;;;;3.53;1.98;;;;;;;;;;5091847;27;20114;-59
2023/07/07 10:12:16;;;;;;;1.90;1.60;;;;;;;;;;5114211;27;20052;-60
2023/07/07 10:14:54;;;;;;;2.53;1.63;;;;;;;;;;5107888;27;20436;-60
2023/07/07 10:17:30;;;;;;;2.47;1.58;;;;;;;;;;5102126;27;20144;-60
2023/07/07 10:19:58;;;;;;;3.28;1.83;;;;;;;;;;5093317;27;20543;-60
2023/07/07 10:22:25;;;;;;;3.75;2.15;;;;;;;;;;5094184;27;20044;-60
2023/07/07 10:24:51;;;;;;;2.35;1.77;;;;;;;;;;5100877;27;20056;-60
2023/07/07 10:27:20;;;;;;;3.22;1.67;;;;;;;;;;5085728;27;20134;-62
2023/07/07 10:29:47;;;;;;;3.33;1.77;;;;;;;;;;5102566;27;20059;-60
2023/07/07 10:32:18;;;;;;;3.28;1.75;;;;;;;;;;5104200;27;20109;-62
2023/07/07 10:34:46;;;;;;;2.72;1.88;;;;;;;;;;5094182;27;20096;-67
2023/07/07 10:37:20;;;;;;;2.83;1.60;;;;;;;;;;5092884;28;20067;-65
2023/07/07 10:39:54;;;;;;;2.28;1.80;;;;;;;;;;5083732;27;20056;-63
2023/07/07 10:42:23;;;;;;;2.28;1.75;;;;;;;;;;5113156;27;20052;-64
2023/07/07 10:44:51;;;;;;;3.97;1.83;;;;;;;;;;5124093;27;20171;-63
2023/07/07 10:47:21;;;;;;;3.13;1.92;;;;;;;;;;5124002;27;20524;-64
2023/07/07 10:49:49;;;;;;;12.00;2.22;;;;;;;;;;5125012;27;20051;-64
2023/07/07 10:52:22;;;;;;;3.63;1.98;;;;;;;;;;5124073;27;20051;-64
2023/07/07 10:55:11;;;;;;;2.65;1.75;;;;;;;;;;5099343;27;20575;-63
2023/07/07 10:57:37;;;;;;;2.85;1.95;;;;;;;;;;5103200;27;20044;-64
2023/07/07 11:00:16;;;;;;;3.00;1.85;;;;;;;;;;5107280;27;20051;-64
2023/07/07 11:03:02;;;;;;;3.30;1.98;;;;;;;;;;5123883;27;20055;-63
2023/07/07 11:05:47;;;;;;;2.05;1.65;;;;;;;;;;5125034;27;20377;-63
2023/07/07 11:08:32;;;;;;;3.53;2.33;;;;;;;;;;5108412;27;20537;-64
2023/07/07 11:11:25;;;;;;;3.15;1.90;;;;;;;;;;5124004;27;20125;-63
2023/07/07 11:14:00;;;;;;;5.50;2.20;;;;;;;;;;5091934;27;20062;-63
2023/07/07 11:17:00;;;;;;;2.10;1.67;;;;;;;;;;5124293;27;20135;-63
2023/07/07 11:19:32;;;;;;;2.22;1.75;;;;;;;;;;5059701;27;20051;-63
2023/07/07 11:22:17;;;;;;;5.65;2.38;;;;;;;;;;5124374;27;20047;-63
2023/07/07 11:24:55;;;;;;;2.80;1.95;;;;;;;;;;5103070;28;20101;-63
2023/07/07 11:27:26;;;;;;;2.88;1.83;;;;;;;;;;5103909;27;20056;-63
2023/07/07 11:30:18;;;;;;;2.53;1.85;;;;;;;;;;5116624;27;20062;-62
2023/07/07 11:32:45;;;;;;;3.80;1.80;;;;;;;;;;5098513;27;20135;-64
2023/07/07 11:35:14;;;;;;;3.53;2.10;;;;;;;;;;5102684;27;20143;-64
2023/07/07 11:37:55;;;;;;;2.88;2.03;;;;;;;;;;5102719;27;20150;-62
2023/07/07 11:40:22;;;;;;;2.22;1.90;;;;;;;;;;5083702;28;20404;-63
2023/07/07 11:43:19;;;;;;;3.50;2.20;;;;;;;;;;5112547;27;20055;-63
2023/07/07 11:46:04;;;;;;;2.70;1.77;;;;;;;;;;5104264;27;20087;-63
2023/07/07 11:48:45;;;;;;;5.10;1.90;;;;;;;;;;5102888;27;20098;-63
2023/07/07 11:51:21;;;;;;;2.75;1.90;;;;;;;;;;5123703;27;20060;-62
2023/07/07 11:54:06;;;;;;;3.78;1.80;;;;;;;;;;5122393;27;20109;-62
2023/07/07 11:56:53;;;;;;;3.85;2.03;;;;;;;;;;5118744;27;20052;-63
2023/07/07 11:59:29;;;;;;;2.33;1.75;;;;;;;;;;5057782;27;20163;-64
2023/07/07 12:01:57;;;;;;;3.67;2.40;;;;;;;;;;5114802;27;20059;-63
2023/07/07 12:04:30;;;;;;;4.20;2.22;;;;;;;;;;5118979;27;20058;-63
2023/07/07 12:07:00;;;;;;;1.98;1.67;;;;;;;;;;5123137;27;20063;-64
2023/07/07 12:09:48;;;;;;;4.00;2.20;;;;;;;;;;5122658;27;20059;-64
2023/07/07 12:12:25;;;;;;;2.58;1.50;;;;;;;;;;5082843;28;20580;-63
2023/07/07 12:15:12;;;;;;;1.90;1.70;;;;;;;;;;5095521;27;20558;-63
2023/07/07 12:17:40;;;;;;;6.13;2.10;;;;;;;;;;5097404;27;20052;-64
2023/07/07 12:20:10;;;;;;;2.25;2.00;;;;;;;;;;5087444;27;20049;-63
2023/07/07 12:22:40;;;;;;;5.32;2.13;;;;;;;;;;5086817;27;20048;-64
2023/07/07 12:25:06;;;;;;;4.05;2.45;;;;;;;;;;5087118;27;20532;-63
2023/07/07 12:27:35;;;;;;;5.10;2.00;;;;;;;;;;5115602;27;20117;-64
2023/07/07 12:30:02;;;;;;;3.78;1.90;;;;;;;;;;5103269;27;20048;-62
2023/07/07 12:32:29;;;;;;;3.50;2.22;;;;;;;;;;5105562;27;20052;-64
2023/07/07 12:35:04;;;;;;;1.80;1.50;;;;;;;;;;5082207;28;20045;-63
2023/07/07 12:37:31;;;;;;;3.05;1.83;;;;;;;;;;5083447;28;20139;-63
2023/07/07 12:40:00;;;;;;;2.55;2.17;;;;;;;;;;5092298;27;20087;-64
2023/07/07 12:42:28;;;;;;;3.13;1.83;;;;;;;;;;5094907;27;20044;-60
2023/07/07 12:44:55;;;;;;;3.47;2.30;;;;;;;;;;5107899;27;20059;-64
2023/07/07 12:47:27;;;;;;;2.40;1.80;;;;;;;;;;5120977;27;20075;-64
2023/07/07 12:49:56;;;;;;;3.42;2.00;;;;;;;;;;5122857;27;20048;-61
2023/07/07 12:52:23;;;;;;;2.03;1.80;;;;;;;;;;5109368;27;21435;-64
2023/07/07 12:54:53;;;;;;;3.58;1.73;;;;;;;;;;5092155;27;20052;-63
2023/07/07 12:57:24;;;;;;;2.08;1.58;;;;;;;;;;5105714;27;20083;-62
2023/07/07 12:59:51;;;;;;;3.40;2.50;;;;;;;;;;5093152;27;20151;-64
2023/07/07 13:02:24;;;;;;;2.10;1.90;;;;;;;;;;5089299;27;20608;-61
2023/07/07 13:04:58;;;;;;;3.80;2.10;;;;;;;;;;5098519;27;20130;-63
2023/07/07 13:07:29;;;;;;;2.85;1.80;;;;;;;;;;5089903;27;20483;-62
2023/07/07 13:09:55;;;;;;;3.33;2.20;;;;;;;;;;5087867;27;20060;-62
2023/07/07 13:12:40;;;;;;;2.88;1.90;;;;;;;;;;5094900;27;20133;-63
2023/07/07 13:15:11;;;;;;;3.67;2.08;;;;;;;;;;5081488;27;20631;-63
2023/07/07 13:17:37;;;;;;;3.53;2.28;;;;;;;;;;5110358;27;20548;-61
2023/07/07 13:20:05;;;;;;;3.38;2.00;;;;;;;;;;5104437;27;20059;-61
2023/07/07 13:22:42;;;;;;;6.13;2.42;;;;;;;;;;5092762;27;20052;-59
2023/07/07 13:25:26;;;;;;;2.88;2.35;;;;;;;;;;5094857;27;20088;-63
2023/07/07 13:27:53;;;;;;;4.13;2.25;;;;;;;;;;5103595;27;20052;-62
2023/07/07 13:30:19;;;;;;;3.75;2.75;;;;;;;;;;5103845;27;20059;-62
2023/07/07 13:32:46;;;;;;;3.42;2.28;;;;;;;;;;5109218;27;20056;-62
2023/07/07 13:35:12;;;;;;;2.95;1.92;;;;;;;;;;5103679;27;20511;-63
2023/07/07 13:37:39;;;;;;;5.72;2.33;;;;;;;;;;5113923;27;20159;-63
2023/07/07 13:40:06;;;;;;;3.92;2.03;;;;;;;;;;5099302;27;20688;-63
2023/07/07 13:42:35;;;;;;;11.40;2.70;;;;;;;;;;5105457;27;20044;-62
2023/07/07 13:45:03;;;;;;;4.47;2.30;;;;;;;;;;5101863;27;20060;-61
2023/07/07 13:47:31;;;;;;;6.40;2.53;;;;;;;;;;5100958;27;20056;-61
2023/07/07 13:50:02;;;;;;;2.67;2.20;;;;;;;;;;5102120;27;20190;-62
2023/07/07 13:52:30;;;;;;;2.47;1.95;;;;;;;;;;5099452;27;20052;-62
2023/07/07 13:54:57;;;;;;;4.90;2.17;;;;;;;;;;5085980;27;20152;-62
2023/07/07 13:57:25;;;;;;;4.68;1.83;;;;;;;;;;5097630;27;20151;-63
2023/07/07 13:59:52;;;;;;;3.75;1.75;;;;;;;;;;5101198;27;20051;-63
2023/07/07 14:02:19;;;;;;;6.13;2.58;;;;;;;;;;5102495;27;20056;-62
2023/07/07 14:04:52;;;;;;;2.47;1.98;;;;;;;;;;5103305;27;20055;-62
2023/07/07 14:07:21;;;;;;;2.60;2.00;;;;;;;;;;5088125;27;20060;-62
2023/07/07 14:09:48;;;;;;;3.70;2.40;;;;;;;;;;5107895;27;20511;-63
2023/07/07 14:12:16;;;;;;;3.75;2.10;;;;;;;;;;5105439;27;20052;-63
2023/07/07 14:14:43;;;;;;;4.53;2.20;;;;;;;;;;5095385;27;20052;-62
2023/07/07 14:17:17;;;;;;;2.45;1.90;;;;;;;;;;5106407;27;20052;-63
2023/07/07 14:19:52;;;;;;;3.80;2.15;;;;;;;;;;5099755;27;20578;-62
2023/07/07 14:22:19;;;;;;;2.35;1.90;;;;;;;;;;5090341;27;20333;-64
2023/07/07 14:24:45;;;;;;;5.03;2.25;;;;;;;;;;5088456;27;20052;-62
2023/07/07 14:27:12;;;;;;;3.58;2.25;;;;;;;;;;5102558;27;20129;-63
2023/07/07 14:29:40;;;;;;;2.08;1.77;;;;;;;;;;5095324;27;20052;-62
2023/07/07 14:32:10;;;;;;;2.20;1.80;;;;;;;;;;5096223;27;20515;-62
2023/07/07 14:34:45;;;;;;;2.85;2.13;;;;;;;;;;5092059;27;20052;-60
2023/07/07 14:37:21;;;;;;;5.20;2.30;;;;;;;;;;5094636;27;20431;-62
2023/07/07 14:39:50;;;;;;;5.85;2.55;;;;;;;;;;5101649;27;20062;-63
2023/07/07 14:42:21;;;;;;;3.00;2.00;;;;;;;;;;5088674;27;20650;-63
2023/07/07 14:44:49;;;;;;;3.33;2.05;;;;;;;;;;5099497;27;20545;-61
2023/07/07 14:47:17;;;;;;;3.35;1.67;;;;;;;;;;5088538;27;20582;-63
2023/07/07 14:49:43;;;;;;;3.95;2.47;;;;;;;;;;5093916;27;20650;-62
2023/07/07 14:52:15;;;;;;;6.60;2.95;;;;;;;;;;5087187;27;20091;-62
2023/07/07 14:54:42;;;;;;;4.60;2.25;;;;;;;;;;5092383;27;20056;-62
2023/07/07 14:57:16;;;;;;;4.20;2.17;;;;;;;;;;5090023;27;20056;-65